Time;durP1;ratioP1;P1;durP2;ratioP2;P2;SDS_P1;SDS_P2;PMS_P1;PMS_P2;Temp;Humidity;BMP_temperature;BMP_pressure;BME280_temperature;BME280_humidity;BME280_pressure;Samples;Min_cycle;Max_cycle;Signal;HPM_P1;HPM_P2
2023/12/31 00:01:02;;;;;;;5.38;4.80;;;11.80;93.10;;;;;;5021652;28;20037;-77
2023/12/31 00:03:28;;;;;;;6.80;5.32;;;11.80;93.10;;;;;;5021643;28;20791;-77
2023/12/31 00:05:54;;;;;;;5.65;4.72;;;11.80;93.10;;;;;;5020488;28;20130;-77
2023/12/31 00:08:20;;;;;;;6.15;5.05;;;11.80;93.10;;;;;;5005314;28;20513;-77
2023/12/31 00:10:46;;;;;;;5.38;4.85;;;11.80;93.00;;;;;;5021634;28;20408;-77
2023/12/31 00:13:12;;;;;;;6.68;5.20;;;11.80;93.00;;;;;;5018798;28;20045;-77
2023/12/31 00:15:38;;;;;;;5.95;5.03;;;11.80;93.00;;;;;;5019826;28;20042;-77
2023/12/31 00:18:04;;;;;;;6.47;4.82;;;11.70;93.00;;;;;;5020597;28;20568;-77
2023/12/31 00:20:30;;;;;;;6.72;4.88;;;11.70;93.10;;;;;;5036407;28;20674;-77
2023/12/31 00:22:56;;;;;;;6.68;5.07;;;11.70;93.10;;;;;;5020697;28;20052;-77
2023/12/31 00:25:22;;;;;;;7.35;5.20;;;11.70;93.00;;;;;;5019441;28;20069;-77
2023/12/31 00:27:48;;;;;;;5.40;4.82;;;11.70;93.10;;;;;;5021435;28;20064;-77
2023/12/31 00:30:14;;;;;;;6.88;5.35;;;11.70;93.10;;;;;;5019424;28;20120;-76
2023/12/31 00:32:41;;;;;;;6.93;5.13;;;11.70;93.20;;;;;;5020746;28;20025;-76
2023/12/31 00:35:07;;;;;;;5.78;4.68;;;11.70;93.10;;;;;;5020184;28;20045;-77
2023/12/31 00:37:33;;;;;;;6.40;4.78;;;11.70;93.10;;;;;;5035037;28;20504;-77
2023/12/31 00:39:59;;;;;;;6.18;4.93;;;11.70;93.10;;;;;;5037517;28;20033;-77
2023/12/31 00:42:25;;;;;;;5.85;4.55;;;11.70;93.10;;;;;;5020857;28;20025;-77
2023/12/31 00:44:51;;;;;;;5.82;5.05;;;11.70;93.10;;;;;;5003783;28;20397;-77
2023/12/31 00:47:17;;;;;;;6.97;4.45;;;11.70;93.00;;;;;;5035479;28;20038;-77
2023/12/31 00:49:43;;;;;;;6.28;4.45;;;11.70;93.10;;;;;;5036683;28;20030;-76
2023/12/31 00:52:09;;;;;;;5.40;4.22;;;11.70;93.10;;;;;;5020228;28;20038;-77
2023/12/31 00:54:35;;;;;;;5.38;4.53;;;11.70;93.00;;;;;;5035386;28;20092;-77
2023/12/31 00:57:01;;;;;;;4.80;4.10;;;11.70;93.30;;;;;;5019563;28;20571;-77
2023/12/31 00:59:27;;;;;;;4.28;3.88;;;11.70;93.10;;;;;;5021499;28;20076;-77
2023/12/31 01:01:54;;;;;;;4.75;3.88;;;11.70;93.10;;;;;;5033931;28;20512;-77
2023/12/31 01:04:21;;;;;;;4.40;3.70;;;11.70;93.10;;;;;;5037391;28;20612;-77
2023/12/31 01:06:47;;;;;;;4.03;3.25;;;11.70;93.10;;;;;;5025223;28;20034;-77
2023/12/31 01:09:13;;;;;;;3.72;3.28;;;11.70;93.00;;;;;;5004958;28;20087;-76
2023/12/31 01:11:40;;;;;;;3.92;3.22;;;11.70;93.00;;;;;;5026417;28;20605;-77
2023/12/31 01:14:06;;;;;;;3.72;3.33;;;11.70;93.00;;;;;;5041104;28;20046;-77
2023/12/31 01:16:32;;;;;;;4.97;3.30;;;11.70;93.00;;;;;;5024391;28;20076;-76
2023/12/31 01:18:58;;;;;;;3.17;2.88;;;11.70;93.00;;;;;;5023293;28;20786;-77
2023/12/31 01:21:24;;;;;;;3.88;3.35;;;11.60;93.00;;;;;;5022450;28;20065;-77
2023/12/31 01:23:50;;;;;;;4.60;3.20;;;11.70;93.10;;;;;;5038392;28;20033;-77
2023/12/31 01:26:16;;;;;;;3.40;3.10;;;11.70;93.00;;;;;;5023178;28;20408;-77
2023/12/31 01:28:42;;;;;;;4.13;3.38;;;11.60;93.00;;;;;;5038815;28;20030;-77
2023/12/31 01:31:08;;;;;;;4.85;3.10;;;11.70;93.00;;;;;;5038704;28;20041;-77
2023/12/31 01:33:37;;;;;;;3.40;3.08;;;11.70;93.00;;;;;;5039316;28;20056;-76
2023/12/31 01:36:12;;;;;;;3.72;3.30;;;11.70;93.00;;;;;;5021832;28;20057;-76
2023/12/31 01:38:38;;;;;;;4.05;3.65;;;11.60;92.90;;;;;;5040202;28;20095;-76
2023/12/31 01:41:07;;;;;;;4.07;3.55;;;11.70;92.90;;;;;;5005511;28;20833;-76
2023/12/31 01:43:33;;;;;;;3.28;2.97;;;11.70;92.90;;;;;;5038577;28;20477;-76
2023/12/31 01:46:00;;;;;;;3.80;3.33;;;11.60;93.00;;;;;;5022470;28;20448;-76
2023/12/31 01:48:27;;;;;;;4.00;3.28;;;11.60;92.80;;;;;;5021796;28;20037;-76
2023/12/31 01:50:53;;;;;;;3.85;3.45;;;11.70;92.90;;;;;;5003705;28;20512;-78
2023/12/31 01:53:20;;;;;;;3.50;3.20;;;11.60;92.80;;;;;;5025816;28;20060;-78
2023/12/31 01:55:47;;;;;;;3.47;3.17;;;11.70;93.00;;;;;;5022505;28;20523;-78
2023/12/31 01:58:15;;;;;;;3.55;3.25;;;11.60;92.80;;;;;;5021470;28;20115;-78
2023/12/31 02:00:41;;;;;;;5.72;3.30;;;11.60;92.80;;;;;;5020232;28;20091;-78
2023/12/31 02:03:07;;;;;;;3.40;3.05;;;11.60;92.80;;;;;;5039833;28;20072;-77
2023/12/31 02:05:33;;;;;;;4.10;3.15;;;11.60;92.90;;;;;;5003339;28;20145;-77
2023/12/31 02:07:59;;;;;;;4.18;3.45;;;11.60;92.90;;;;;;5022147;28;20033;-78
2023/12/31 02:10:25;;;;;;;5.15;3.50;;;11.60;92.80;;;;;;5036617;28;20065;-78
2023/12/31 02:12:55;;;;;;;3.83;3.53;;;11.60;92.90;;;;;;5004177;28;20041;-78
2023/12/31 02:15:34;;;;;;;3.30;2.95;;;11.60;92.90;;;;;;5021416;28;20038;-78
2023/12/31 02:18:01;;;;;;;3.72;3.15;;;11.60;92.70;;;;;;5039606;28;20188;-78
2023/12/31 02:20:29;;;;;;;3.97;3.42;;;11.60;92.60;;;;;;5021530;28;20038;-78
2023/12/31 02:22:55;;;;;;;4.95;3.40;;;11.60;92.60;;;;;;5023413;28;20056;-77
2023/12/31 02:25:23;;;;;;;4.60;3.38;;;11.60;92.50;;;;;;5039277;28;20038;-77
2023/12/31 02:27:50;;;;;;;4.22;3.45;;;11.60;92.40;;;;;;5021234;28;20511;-75
2023/12/31 02:30:17;;;;;;;4.18;3.15;;;11.60;92.60;;;;;;5021782;28;20411;-75
2023/12/31 02:32:42;;;;;;;4.55;3.42;;;11.50;92.30;;;;;;5038744;28;20037;-75
2023/12/31 02:35:08;;;;;;;4.18;2.90;;;11.50;92.30;;;;;;5022077;28;20034;-75
2023/12/31 02:37:35;;;;;;;4.55;3.38;;;11.60;92.40;;;;;;5037099;28;20037;-75
2023/12/31 02:40:01;;;;;;;4.60;3.38;;;11.60;92.40;;;;;;5004743;28;20063;-75
2023/12/31 02:42:27;;;;;;;3.60;3.20;;;11.60;92.30;;;;;;5020144;28;20049;-75
2023/12/31 02:44:53;;;;;;;3.40;2.95;;;11.50;92.10;;;;;;5003488;28;20038;-76
2023/12/31 02:47:18;;;;;;;5.38;3.67;;;11.60;92.30;;;;;;5038988;28;20741;-76
2023/12/31 02:49:45;;;;;;;3.47;2.92;;;11.60;92.30;;;;;;5019093;28;20132;-75
2023/12/31 02:52:11;;;;;;;4.15;3.63;;;11.50;92.10;;;;;;5023180;28;20456;-77
2023/12/31 02:54:38;;;;;;;5.25;3.47;;;11.50;92.10;;;;;;5021120;28;20026;-77
2023/12/31 02:57:07;;;;;;;3.53;3.20;;;11.50;92.20;;;;;;5006637;28;20622;-77
2023/12/31 02:59:36;;;;;;;10.75;4.47;;;11.50;92.00;;;;;;5024869;28;20040;-75
2023/12/31 03:02:03;;;;;;;4.00;3.47;;;11.50;92.10;;;;;;5021436;28;20116;-77
2023/12/31 03:04:30;;;;;;;4.70;3.58;;;11.50;92.00;;;;;;5019090;28;20045;-76
2023/12/31 03:06:56;;;;;;;4.78;3.80;;;11.50;92.00;;;;;;5037463;28;20534;-77
2023/12/31 03:09:22;;;;;;;4.78;3.22;;;11.50;92.10;;;;;;5037546;28;20033;-77
2023/12/31 03:11:50;;;;;;;5.30;3.65;;;11.50;92.10;;;;;;5006655;28;20040;-77
2023/12/31 03:14:16;;;;;;;3.65;3.20;;;11.50;92.00;;;;;;5023565;28;20037;-77
2023/12/31 03:16:46;;;;;;;4.03;3.20;;;11.50;92.00;;;;;;5027005;28;20041;-76
2023/12/31 03:19:17;;;;;;;4.57;2.97;;;11.50;92.00;;;;;;5038909;28;21417;-76
2023/12/31 03:21:43;;;;;;;4.18;3.63;;;11.50;91.90;;;;;;5023220;28;20044;-76
2023/12/31 03:24:09;;;;;;;5.32;3.75;;;11.50;91.90;;;;;;5025170;28;20049;-76
2023/12/31 03:26:35;;;;;;;4.70;3.65;;;11.50;91.80;;;;;;5005816;28;20489;-76
2023/12/31 03:29:02;;;;;;;4.53;3.35;;;11.50;91.80;;;;;;5037819;28;20029;-76
2023/12/31 03:31:28;;;;;;;5.57;3.33;;;11.50;91.70;;;;;;5021770;28;20049;-75
2023/12/31 03:33:54;;;;;;;3.92;3.15;;;11.50;91.70;;;;;;5019783;28;20042;-76
2023/12/31 03:36:24;;;;;;;5.07;3.42;;;11.50;91.80;;;;;;5019595;28;20048;-76
2023/12/31 03:38:50;;;;;;;3.63;3.22;;;11.50;91.70;;;;;;5002874;28;20124;-76
2023/12/31 03:41:16;;;;;;;4.43;3.00;;;11.40;91.70;;;;;;5002652;28;20064;-76
2023/12/31 03:43:43;;;;;;;3.15;2.72;;;11.50;91.70;;;;;;5019785;28;20095;-75
2023/12/31 03:46:09;;;;;;;4.53;3.00;;;11.50;91.70;;;;;;5021474;28;20045;-75
2023/12/31 03:48:35;;;;;;;3.50;2.95;;;11.40;91.60;;;;;;5020671;28;20045;-75
2023/12/31 03:51:01;;;;;;;4.13;3.10;;;11.50;91.60;;;;;;5035197;28;20030;-75
2023/12/31 03:53:27;;;;;;;3.33;2.90;;;11.50;92.00;;;;;;5021897;28;20071;-76
2023/12/31 03:55:53;;;;;;;5.07;2.90;;;11.50;91.60;;;;;;5001083;28;20037;-76
2023/12/31 03:58:19;;;;;;;3.22;2.55;;;11.40;91.60;;;;;;5021210;28;20037;-76
2023/12/31 04:00:45;;;;;;;3.10;2.40;;;11.50;91.50;;;;;;5034737;28;20073;-75
2023/12/31 04:03:11;;;;;;;6.50;2.75;;;11.40;91.50;;;;;;5020507;28;20111;-75
2023/12/31 04:05:38;;;;;;;4.38;2.63;;;11.50;91.50;;;;;;5038042;28;20537;-76
2023/12/31 04:08:04;;;;;;;2.85;2.45;;;11.40;91.50;;;;;;5008207;28;20037;-76
2023/12/31 04:10:30;;;;;;;2.67;2.33;;;11.40;91.50;;;;;;5022577;28;20037;-76
2023/12/31 04:12:56;;;;;;;3.03;2.25;;;11.40;91.50;;;;;;5034932;28;20045;-76
2023/12/31 04:15:22;;;;;;;3.25;2.47;;;11.40;91.50;;;;;;5021067;28;20029;-76
2023/12/31 04:17:48;;;;;;;3.55;2.30;;;11.50;91.40;;;;;;5018939;28;20041;-76
2023/12/31 04:20:15;;;;;;;9.15;2.38;;;11.40;91.40;;;;;;5019494;28;20078;-75
2023/12/31 04:22:41;;;;;;;2.85;1.90;;;11.40;91.30;;;;;;5020774;28;20042;-76
2023/12/31 04:25:07;;;;;;;5.18;2.65;;;11.40;91.40;;;;;;5036698;28;20735;-76
2023/12/31 04:27:38;;;;;;;2.05;1.88;;;11.40;91.30;;;;;;5020378;28;20143;-76
2023/12/31 04:30:05;;;;;;;2.58;2.35;;;11.40;91.30;;;;;;5002034;28;20045;-76
2023/12/31 04:32:31;;;;;;;2.53;2.10;;;11.40;91.30;;;;;;5020674;28;20043;-76
2023/12/31 04:34:57;;;;;;;2.20;1.80;;;11.50;91.20;;;;;;5020457;28;20041;-76
2023/12/31 04:37:22;;;;;;;1.92;1.83;;;11.40;91.20;;;;;;5036512;28;20378;-76
2023/12/31 04:39:49;;;;;;;1.73;1.60;;;11.40;91.20;;;;;;5021846;28;20033;-76
2023/12/31 04:42:15;;;;;;;1.80;1.65;;;11.40;91.50;;;;;;5025078;28;20030;-75
2023/12/31 04:44:41;;;;;;;1.40;1.30;;;11.40;91.30;;;;;;5022487;28;20473;-75
2023/12/31 04:47:07;;;;;;;1.60;1.50;;;11.40;91.30;;;;;;5006709;28;20063;-76
2023/12/31 04:49:33;;;;;;;1.52;1.30;;;11.40;91.30;;;;;;5024070;28;20540;-77
2023/12/31 04:51:59;;;;;;;1.88;1.48;;;11.40;91.20;;;;;;5023906;28;20033;-76
2023/12/31 04:54:25;;;;;;;3.17;1.52;;;11.40;91.20;;;;;;5023620;28;20541;-77
2023/12/31 04:56:51;;;;;;;1.23;1.13;;;11.40;91.20;;;;;;5023907;28;20029;-77
2023/12/31 04:59:17;;;;;;;1.50;1.40;;;11.40;91.50;;;;;;5022184;28;20044;-77
2023/12/31 05:01:43;;;;;;;1.33;1.00;;;11.40;91.20;;;;;;5006729;28;20596;-76
2023/12/31 05:04:09;;;;;;;1.20;1.10;;;11.40;91.20;;;;;;4994185;28;20037;-76
2023/12/31 05:06:35;;;;;;;2.28;1.23;;;11.40;91.10;;;;;;5026042;28;20409;-75
2023/12/31 05:09:03;;;;;;;1.20;1.10;;;11.40;91.20;;;;;;5025281;28;20064;-76
2023/12/31 05:11:29;;;;;;;1.30;1.20;;;11.40;91.10;;;;;;5038791;28;20029;-76
2023/12/31 05:13:55;;;;;;;2.55;1.30;;;11.40;91.10;;;;;;5025356;28;20390;-76
2023/12/31 05:16:21;;;;;;;1.50;1.23;;;11.40;91.10;;;;;;5023596;28;20045;-76
2023/12/31 05:18:50;;;;;;;1.75;1.23;;;11.40;91.40;;;;;;5023374;28;20038;-76
2023/12/31 05:21:17;;;;;;;1.38;1.27;;;11.40;91.10;;;;;;5025087;28;20034;-76
2023/12/31 05:23:43;;;;;;;1.20;1.10;;;11.40;91.10;;;;;;5025593;28;20087;-76
2023/12/31 05:26:09;;;;;;;0.90;0.90;;;11.40;91.00;;;;;;5021944;28;20428;-76
2023/12/31 05:28:35;;;;;;;1.10;1.00;;;11.40;91.00;;;;;;5025300;28;20041;-76
2023/12/31 05:31:01;;;;;;;1.20;1.10;;;11.40;91.10;;;;;;5026196;28;20044;-76
2023/12/31 05:33:27;;;;;;;0.77;0.77;;;11.40;91.10;;;;;;5021383;28;20513;-77
2023/12/31 05:35:53;;;;;;;2.80;1.05;;;11.40;91.00;;;;;;5010150;28;20065;-77
2023/12/31 05:38:19;;;;;;;2.03;1.05;;;11.40;91.00;;;;;;5008953;28;20033;-77
2023/12/31 05:40:45;;;;;;;1.80;1.30;;;11.40;91.00;;;;;;5005415;28;20037;-77
2023/12/31 05:43:11;;;;;;;2.47;1.10;;;11.40;91.00;;;;;;5023941;28;20048;-77
2023/12/31 05:45:37;;;;;;;0.90;0.90;;;11.40;91.00;;;;;;5023312;28;20723;-76
2023/12/31 05:48:04;;;;;;;0.93;0.82;;;11.40;91.00;;;;;;5023575;28;20065;-77
2023/12/31 05:50:30;;;;;;;1.20;1.02;;;11.40;91.00;;;;;;5022907;28;20025;-76
2023/12/31 05:52:56;;;;;;;0.85;0.80;;;11.40;91.00;;;;;;5022582;28;20084;-75
2023/12/31 05:55:23;;;;;;;1.02;1.00;;;11.40;91.00;;;;;;5023293;28;20083;-78
2023/12/31 05:57:49;;;;;;;0.60;0.60;;;11.40;90.90;;;;;;5023470;28;20037;-77
2023/12/31 06:00:15;;;;;;;1.77;0.90;;;11.40;91.00;;;;;;5036753;28;20816;-77
2023/12/31 06:02:41;;;;;;;0.70;0.70;;;11.40;91.00;;;;;;5023686;28;20030;-76
2023/12/31 06:05:08;;;;;;;0.85;0.80;;;11.40;90.90;;;;;;5038177;28;20432;-76
2023/12/31 06:07:34;;;;;;;0.63;0.63;;;11.40;91.00;;;;;;5023127;28;20026;-74
2023/12/31 06:10:00;;;;;;;0.77;0.77;;;11.40;90.90;;;;;;5021116;28;20497;-76
2023/12/31 06:12:26;;;;;;;2.08;0.82;;;11.40;90.90;;;;;;5024018;28;20038;-77
2023/12/31 06:14:52;;;;;;;1.40;1.00;;;11.40;90.90;;;;;;5021614;28;20041;-77
2023/12/31 06:17:18;;;;;;;1.15;1.05;;;11.40;90.90;;;;;;5021394;28;20036;-77
2023/12/31 06:19:44;;;;;;;1.77;0.60;;;11.40;90.90;;;;;;5004564;28;20064;-79
2023/12/31 06:22:11;;;;;;;0.73;0.73;;;11.40;90.90;;;;;;5023427;28;20139;-78
2023/12/31 06:24:37;;;;;;;0.80;0.73;;;11.40;90.90;;;;;;5023002;28;20089;-78
2023/12/31 06:27:03;;;;;;;0.70;0.70;;;11.40;90.90;;;;;;5022597;28;20184;-78
2023/12/31 06:29:29;;;;;;;2.10;0.68;;;11.40;90.80;;;;;;5037772;28;20044;-78
2023/12/31 06:31:55;;;;;;;1.73;0.40;;;11.40;90.90;;;;;;5022073;28;20038;-77
2023/12/31 06:34:21;;;;;;;0.60;0.60;;;11.40;90.90;;;;;;5021731;28;20639;-77
2023/12/31 06:36:47;;;;;;;1.05;0.68;;;11.40;90.80;;;;;;5022394;28;20026;-78
2023/12/31 06:39:13;;;;;;;0.82;0.73;;;11.40;90.80;;;;;;5023973;28;20840;-76
2023/12/31 06:41:39;;;;;;;0.70;0.70;;;11.40;90.80;;;;;;5024102;28;20032;-77
2023/12/31 06:44:05;;;;;;;2.70;0.80;;;11.40;90.90;;;;;;5021828;28;20049;-78
2023/12/31 06:46:31;;;;;;;1.60;0.90;;;11.40;90.70;;;;;;5038163;28;20033;-78
2023/12/31 06:48:57;;;;;;;0.77;0.70;;;11.40;90.80;;;;;;5022199;28;20044;-78
2023/12/31 06:51:23;;;;;;;1.55;0.75;;;11.40;90.80;;;;;;5021578;28;20037;-76
2023/12/31 06:53:50;;;;;;;1.42;0.70;;;11.40;90.90;;;;;;5021540;28;20709;-77
2023/12/31 06:56:17;;;;;;;3.15;0.80;;;11.40;90.80;;;;;;5021988;28;20083;-76
2023/12/31 06:58:43;;;;;;;1.85;0.70;;;11.40;90.90;;;;;;5021241;28;20030;-77
2023/12/31 07:01:10;;;;;;;1.83;0.55;;;11.40;90.80;;;;;;5021629;28;20041;-77
2023/12/31 07:03:36;;;;;;;1.25;0.75;;;11.40;90.70;;;;;;5021561;28;20045;-77
2023/12/31 07:06:02;;;;;;;2.05;0.50;;;11.40;90.70;;;;;;5020719;28;20047;-78
2023/12/31 07:08:28;;;;;;;0.75;0.70;;;11.40;90.60;;;;;;5021561;28;20125;-78
2023/12/31 07:10:55;;;;;;;3.60;1.35;;;11.40;90.60;;;;;;5022175;28;20591;-76
2023/12/31 07:13:21;;;;;;;1.27;0.50;;;11.40;90.40;;;;;;5022868;28;20044;-77
2023/12/31 07:15:47;;;;;;;2.10;0.80;;;11.40;90.40;;;;;;5021232;28;20041;-75
2023/12/31 07:18:13;;;;;;;1.58;0.70;;;11.40;90.30;;;;;;5022176;28;20041;-73
2023/12/31 07:20:39;;;;;;;1.95;0.75;;;11.40;90.30;;;;;;5022370;28;20029;-74
2023/12/31 07:23:05;;;;;;;5.03;1.27;;;11.40;90.20;;;;;;5021991;28;20053;-75
2023/12/31 07:25:32;;;;;;;1.20;0.98;;;11.40;90.20;;;;;;5020668;28;20041;-74
2023/12/31 07:28:01;;;;;;;1.85;0.73;;;11.40;90.20;;;;;;5022334;28;20034;-77
2023/12/31 07:30:27;;;;;;;0.95;0.60;;;11.40;90.40;;;;;;5019422;28;20033;-79
2023/12/31 07:32:53;;;;;;;2.20;0.70;;;11.40;90.30;;;;;;5003408;28;20030;-77
2023/12/31 07:35:19;;;;;;;0.95;0.70;;;11.40;90.10;;;;;;5022790;28;20037;-77
2023/12/31 07:37:45;;;;;;;0.80;0.70;;;11.40;90.20;;;;;;5035202;28;20033;-77
2023/12/31 07:40:11;;;;;;;1.13;0.70;;;11.40;90.20;;;;;;5003987;28;20040;-75
2023/12/31 07:42:37;;;;;;;3.50;0.60;;;11.40;90.00;;;;;;5023447;28;20034;-75
2023/12/31 07:45:05;;;;;;;0.50;0.50;;;11.40;90.00;;;;;;5002884;28;20128;-76
2023/12/31 07:47:35;;;;;;;2.35;0.80;;;11.40;90.00;;;;;;5021760;28;20432;-84
2023/12/31 07:50:03;;;;;;;1.38;0.50;;;11.40;89.90;;;;;;5013305;28;20544;-79
2023/12/31 07:52:29;;;;;;;5.57;0.90;;;11.50;90.10;;;;;;5043752;28;20041;-77
2023/12/31 07:54:55;;;;;;;3.95;1.02;;;11.50;90.20;;;;;;5027798;28;20061;-77
2023/12/31 07:57:21;;;;;;;3.20;0.80;;;11.50;90.30;;;;;;5005211;28;20057;-77
2023/12/31 07:59:47;;;;;;;2.45;0.70;;;11.50;90.30;;;;;;5033360;28;20029;-76
2023/12/31 08:02:13;;;;;;;4.40;1.10;;;11.50;90.50;;;;;;5031337;28;20095;-77
2023/12/31 08:04:39;;;;;;;9.48;0.98;;;11.50;90.50;;;;;;5029387;28;20416;-76
2023/12/31 08:07:05;;;;;;;4.15;0.80;;;11.50;90.70;;;;;;5030107;28;20093;-73
2023/12/31 08:09:31;;;;;;;8.23;1.38;;;11.50;91.20;;;;;;5030698;28;20041;-73
2023/12/31 08:11:57;;;;;;;5.00;1.13;;;11.70;92.90;;;;;;5030281;28;20037;-72
2023/12/31 08:14:23;;;;;;;5.35;1.00;;;11.80;93.60;;;;;;5020649;28;20106;-74
2023/12/31 08:16:50;;;;;;;5.65;1.00;;;11.90;94.10;;;;;;5022062;28;20041;-73
2023/12/31 08:19:16;;;;;;;4.82;0.85;;;12.10;94.70;;;;;;5031080;28;20038;-73
2023/12/31 08:21:42;;;;;;;3.38;0.80;;;12.20;94.60;;;;;;5030922;28;20045;-76
2023/12/31 08:24:08;;;;;;;3.60;0.90;;;12.30;94.70;;;;;;5017168;28;20450;-75
2023/12/31 08:26:38;;;;;;;8.52;1.15;;;12.30;94.60;;;;;;5026748;28;20029;-70
2023/12/31 08:29:04;;;;;;;3.70;1.23;;;12.40;94.70;;;;;;5010215;28;20172;-69
2023/12/31 08:31:30;;;;;;;3.83;0.70;;;12.50;94.90;;;;;;5027986;28;20041;-78
2023/12/31 08:33:56;;;;;;;11.32;1.35;;;12.60;94.90;;;;;;5029051;28;20041;-77
2023/12/31 08:36:22;;;;;;;3.00;0.80;;;12.60;94.80;;;;;;5028126;28;20040;-77
2023/12/31 08:38:48;;;;;;;7.60;1.08;;;12.60;93.90;;;;;;5027495;28;20018;-76
2023/12/31 08:41:14;;;;;;;2.33;0.80;;;12.60;93.60;;;;;;5029312;28;20508;-69
2023/12/31 08:43:40;;;;;;;6.13;0.90;;;12.60;93.10;;;;;;5028728;28;20041;-77
2023/12/31 08:46:07;;;;;;;2.30;0.60;;;12.70;94.30;;;;;;5012339;28;20041;-78
2023/12/31 08:48:33;;;;;;;6.63;0.95;;;12.70;94.50;;;;;;5027851;28;20050;-78
2023/12/31 08:50:59;;;;;;;5.30;1.23;;;12.70;93.90;;;;;;5037346;28;20410;-77
2023/12/31 08:53:25;;;;;;;5.25;0.73;;;12.70;93.40;;;;;;5028864;28;20029;-77
2023/12/31 08:55:51;;;;;;;4.38;0.57;;;12.70;93.00;;;;;;5023482;28;20140;-75
2023/12/31 08:58:18;;;;;;;3.92;0.90;;;12.70;92.60;;;;;;5018880;28;20048;-75
2023/12/31 09:00:44;;;;;;;3.90;0.60;;;12.70;92.40;;;;;;5013435;28;20037;-75
2023/12/31 09:03:10;;;;;;;1.75;0.80;;;12.70;92.20;;;;;;5020118;28;20973;-78
2023/12/31 09:05:36;;;;;;;4.00;0.70;;;12.70;92.00;;;;;;5035366;28;20125;-77
2023/12/31 09:08:02;;;;;;;1.98;0.70;;;12.70;91.90;;;;;;5021056;28;20132;-77
2023/12/31 09:10:29;;;;;;;4.53;0.80;;;12.70;92.10;;;;;;5015806;28;20045;-75
2023/12/31 09:12:55;;;;;;;3.25;0.65;;;12.70;91.90;;;;;;5017045;28;20578;-75
2023/12/31 09:15:21;;;;;;;3.90;0.60;;;12.70;91.90;;;;;;5022725;28;20029;-75
2023/12/31 09:17:47;;;;;;;3.72;0.80;;;12.70;91.80;;;;;;5018549;28;20499;-75
2023/12/31 09:20:13;;;;;;;1.80;0.90;;;12.60;91.90;;;;;;5021405;28;20025;-75
2023/12/31 09:22:40;;;;;;;1.67;0.75;;;12.60;91.90;;;;;;5005340;28;20044;-73
2023/12/31 09:25:06;;;;;;;4.18;0.85;;;12.60;91.90;;;;;;5020930;28;20111;-74
2023/12/31 09:27:32;;;;;;;2.47;0.80;;;12.60;91.90;;;;;;5025368;28;20212;-74
2023/12/31 09:29:58;;;;;;;3.88;0.95;;;12.60;91.90;;;;;;5037088;28;20034;-73
2023/12/31 09:32:24;;;;;;;3.35;0.55;;;12.60;91.80;;;;;;5019334;28;20040;-75
2023/12/31 09:34:50;;;;;;;2.20;0.75;;;12.50;91.80;;;;;;5035035;28;20533;-76
2023/12/31 09:37:18;;;;;;;2.80;0.68;;;12.50;91.90;;;;;;5022072;28;20026;-76
2023/12/31 09:39:48;;;;;;;2.28;0.50;;;12.60;92.00;;;;;;5020400;28;20034;-77
2023/12/31 09:42:20;;;;;;;3.70;1.15;;;12.50;92.00;;;;;;5032921;28;20597;-75
2023/12/31 09:44:49;;;;;;;3.30;0.82;;;12.50;92.30;;;;;;5021222;28;20607;-74
2023/12/31 09:47:15;;;;;;;1.35;0.70;;;12.50;92.30;;;;;;5020903;28;20136;-75
2023/12/31 09:49:42;;;;;;;4.13;0.70;;;12.50;92.20;;;;;;5037317;28;20386;-75
2023/12/31 09:52:09;;;;;;;1.02;0.75;;;12.50;92.40;;;;;;5021375;28;20034;-74
2023/12/31 09:54:38;;;;;;;2.03;0.40;;;12.50;92.40;;;;;;5020881;28;20030;-75
2023/12/31 09:57:06;;;;;;;3.08;0.55;;;12.50;92.40;;;;;;5020016;28;20037;-74
2023/12/31 09:59:32;;;;;;;1.20;0.63;;;12.50;92.30;;;;;;5019317;28;20416;-76
2023/12/31 10:02:06;;;;;;;2.53;0.80;;;12.50;92.30;;;;;;5019561;28;20231;-77
2023/12/31 10:04:32;;;;;;;2.55;0.80;;;12.50;92.80;;;;;;5050976;28;20037;-75
2023/12/31 10:06:59;;;;;;;0.45;0.40;;;12.50;92.70;;;;;;5023498;28;20548;-76
2023/12/31 10:09:31;;;;;;;1.50;0.52;;;12.50;92.60;;;;;;5018288;28;20048;-80
2023/12/31 10:12:03;;;;;;;2.60;0.52;;;12.50;92.60;;;;;;5015396;28;20049;-87
2023/12/31 10:14:29;;;;;;;5.85;0.88;;;12.50;92.70;;;;;;5011494;28;20180;-91
2023/12/31 10:16:55;;;;;;;2.13;0.50;;;12.50;92.60;;;;;;4997017;28;20096;-89
2023/12/31 10:19:21;;;;;;;1.77;0.70;;;12.40;92.60;;;;;;4989760;28;20213;-80
2023/12/31 10:21:47;;;;;;;6.63;0.70;;;12.40;92.60;;;;;;5037488;28;20041;-71
2023/12/31 10:24:13;;;;;;;6.25;0.70;;;12.40;92.60;;;;;;5020129;28;20084;-84
2023/12/31 10:26:42;;;;;;;6.53;0.95;;;12.40;93.00;;;;;;5022449;28;20103;-86
2023/12/31 10:29:09;;;;;;;5.80;1.30;;;12.40;92.90;;;;;;5019956;28;20049;-80
2023/12/31 10:31:35;;;;;;;4.43;0.80;;;12.40;93.10;;;;;;5037032;28;20120;-79
2023/12/31 10:34:27;;;;;;;5.38;1.02;;;12.40;93.00;;;;;;5008941;28;20053;-83
2023/12/31 10:37:03;;;;;;;4.00;1.13;;;12.40;93.80;;;;;;5019075;28;20173;-82
2023/12/31 10:39:39;;;;;;;2.08;0.50;;;12.50;93.50;;;;;;5008493;28;20408;-85
2023/12/31 10:42:06;;;;;;;4.43;0.70;;;12.50;93.40;;;;;;5023411;28;20048;-81
2023/12/31 10:44:34;;;;;;;3.85;1.02;;;12.50;93.50;;;;;;5022704;28;20037;-83
2023/12/31 10:47:06;;;;;;;2.88;0.88;;;12.50;93.30;;;;;;5008999;28;20049;-85
2023/12/31 10:49:34;;;;;;;3.25;0.80;;;12.50;93.20;;;;;;5022194;28;20034;-82
2023/12/31 10:52:02;;;;;;;1.98;0.70;;;12.50;93.20;;;;;;5007478;28;20478;-84
2023/12/31 10:54:40;;;;;;;5.20;0.80;;;12.40;93.10;;;;;;5024798;28;20030;-84
2023/12/31 10:57:09;;;;;;;3.22;0.60;;;12.40;93.00;;;;;;5021003;28;20033;-82
2023/12/31 10:59:36;;;;;;;5.93;0.80;;;12.50;92.90;;;;;;5036836;28;20061;-82
2023/12/31 11:02:05;;;;;;;2.03;0.65;;;12.50;92.90;;;;;;5035785;28;20595;-87
2023/12/31 11:04:32;;;;;;;2.15;0.90;;;12.50;92.80;;;;;;5004425;28;20127;-85
2023/12/31 11:07:01;;;;;;;2.88;0.80;;;12.40;92.70;;;;;;5003419;28;20029;-83
2023/12/31 11:09:28;;;;;;;2.25;0.90;;;12.50;92.60;;;;;;5004427;28;20033;-83
2023/12/31 11:11:55;;;;;;;1.00;0.70;;;12.50;92.60;;;;;;5035299;28;20064;-84
2023/12/31 11:14:29;;;;;;;1.75;0.80;;;12.50;92.60;;;;;;5008918;28;20033;-91
2023/12/31 11:16:57;;;;;;;1.90;0.60;;;12.40;92.60;;;;;;5038610;28;20038;-85
2023/12/31 11:20:08;;;;;;;1.42;0.70;;;12.40;92.60;;;;;;5021815;28;20124;-86
2023/12/31 11:23:03;;;;;;;2.95;0.60;;;12.40;92.60;;;;;;5036836;28;20038;-80
2023/12/31 11:25:31;;;;;;;3.28;0.68;;;12.40;92.50;;;;;;5006993;28;20045;-84
2023/12/31 11:27:57;;;;;;;2.42;1.27;;;12.40;92.50;;;;;;5022570;28;20160;-80
2023/12/31 11:31:02;;;;;;;2.75;0.40;;;12.50;94.00;;;;;;5022546;28;20499;-72
2023/12/31 11:33:37;;;;;;;2.05;0.85;;;12.70;95.30;;;;;;5017841;28;20041;-80
2023/12/31 11:36:13;;;;;;;2.83;0.60;;;12.70;95.10;;;;;;5024148;28;20037;-78
2023/12/31 11:38:57;;;;;;;1.80;0.82;;;12.70;94.30;;;;;;5021133;28;20041;-78
2023/12/31 11:41:34;;;;;;;3.97;0.60;;;12.70;93.80;;;;;;5019958;28;20045;-78
2023/12/31 11:44:00;;;;;;;3.05;0.90;;;12.70;93.50;;;;;;5021245;28;20040;-78
2023/12/31 11:46:35;;;;;;;3.13;0.80;;;12.70;93.10;;;;;;5022157;28;20037;-79
2023/12/31 11:49:02;;;;;;;3.63;2.30;;;12.60;92.90;;;;;;5020018;28;20142;-80
2023/12/31 11:51:29;;;;;;;5.55;3.00;;;12.60;92.90;;;;;;5018060;28;20033;-79
2023/12/31 11:53:59;;;;;;;7.57;3.80;;;12.60;92.80;;;;;;5001349;28;20040;-79
2023/12/31 11:56:30;;;;;;;10.13;4.03;;;12.70;93.20;;;;;;5002542;28;20022;-79
2023/12/31 11:58:56;;;;;;;7.25;3.88;;;12.70;93.30;;;;;;5020483;28;20068;-78
2023/12/31 12:01:22;;;;;;;6.85;4.30;;;12.70;93.10;;;;;;5019771;28;20042;-80
2023/12/31 12:03:48;;;;;;;6.43;4.03;;;12.70;93.00;;;;;;4999434;28;20041;-81
2023/12/31 12:06:14;;;;;;;8.35;4.07;;;12.70;92.80;;;;;;5017776;28;20061;-81
2023/12/31 12:08:40;;;;;;;7.05;3.88;;;12.60;92.60;;;;;;5020778;28;20087;-80
2023/12/31 12:11:09;;;;;;;4.43;2.17;;;12.60;92.60;;;;;;5022831;28;20460;-82
2023/12/31 12:13:35;;;;;;;3.92;2.20;;;12.70;93.20;;;;;;4994358;28;20116;-84
2023/12/31 12:16:01;;;;;;;6.55;2.20;;;12.70;93.20;;;;;;5033420;28;20040;-84
2023/12/31 12:18:27;;;;;;;5.57;2.47;;;12.60;93.20;;;;;;5016684;28;20120;-86
2023/12/31 12:20:55;;;;;;;4.75;2.30;;;12.70;93.10;;;;;;5021758;28;20069;-86
2023/12/31 12:23:23;;;;;;;4.30;2.40;;;12.60;93.10;;;;;;5022955;28;20061;-84
2023/12/31 12:25:50;;;;;;;4.18;2.47;;;12.60;92.90;;;;;;5036584;28;20060;-89
2023/12/31 12:28:16;;;;;;;3.90;2.63;;;12.60;92.80;;;;;;5025045;28;20037;-85
2023/12/31 12:30:43;;;;;;;3.67;2.45;;;12.60;92.70;;;;;;5042991;28;20091;-82
2023/12/31 12:33:12;;;;;;;5.47;2.45;;;12.60;92.40;;;;;;5023427;28;20835;-80
2023/12/31 12:35:39;;;;;;;4.43;2.40;;;12.50;92.40;;;;;;5025540;28;20037;-83
2023/12/31 12:38:06;;;;;;;5.55;2.47;;;12.60;92.70;;;;;;5040453;28;20072;-82
2023/12/31 12:40:33;;;;;;;7.88;2.58;;;12.60;92.80;;;;;;5023908;28;20044;-82
2023/12/31 12:43:01;;;;;;;7.38;2.83;;;12.60;92.90;;;;;;5024575;28;20033;-82
2023/12/31 12:45:29;;;;;;;5.57;2.33;;;12.50;92.60;;;;;;5024224;28;20038;-83